Time;durP1;ratioP1;P1;durP2;ratioP2;P2;SDS_P1;SDS_P2;PMS_P1;PMS_P2;Temp;Humidity;BMP_temperature;BMP_pressure;BME280_temperature;BME280_humidity;BME280_pressure;Samples;Min_cycle;Max_cycle;Signal;HPM_P1;HPM_P2
2022/03/19 00:00:35;;;;;;;17.70;10.10;;;28.30;77.50;;;;;;5085131;28;20021;-51
2022/03/19 00:03:02;;;;;;;15.75;9.50;;;28.30;77.60;;;;;;5085285;28;20039;-50
2022/03/19 00:05:29;;;;;;;19.25;10.10;;;28.30;77.50;;;;;;5085169;28;20047;-48
2022/03/19 00:07:56;;;;;;;14.50;9.50;;;28.30;77.30;;;;;;5085362;28;20056;-51
2022/03/19 00:10:24;;;;;;;18.88;9.88;;;28.30;77.20;;;;;;5085141;28;20092;-55
2022/03/19 00:12:51;;;;;;;14.77;9.43;;;28.30;77.10;;;;;;5085229;28;20020;-49
2022/03/19 00:15:17;;;;;;;16.30;10.02;;;28.30;77.10;;;;;;5081951;28;20016;-54
2022/03/19 00:17:44;;;;;;;18.95;11.40;;;28.20;76.90;;;;;;5084967;28;20036;-55
2022/03/19 00:20:11;;;;;;;18.02;10.10;;;28.20;76.80;;;;;;5078405;28;20055;-55
2022/03/19 00:22:38;;;;;;;21.48;10.70;;;28.20;76.80;;;;;;5068209;28;20065;-60
2022/03/19 00:25:08;;;;;;;16.73;10.23;;;28.10;76.50;;;;;;5076179;28;20343;-59
2022/03/19 00:27:35;;;;;;;19.08;10.80;;;28.10;76.60;;;;;;5082438;28;20327;-56
2022/03/19 00:30:02;;;;;;;19.23;10.57;;;28.10;76.50;;;;;;5066396;28;20033;-58
2022/03/19 00:32:28;;;;;;;21.08;11.05;;;28.10;76.40;;;;;;5065122;28;20339;-55
2022/03/19 00:34:55;;;;;;;20.70;10.93;;;28.00;76.20;;;;;;5072459;28;20032;-58
2022/03/19 00:37:21;;;;;;;17.60;10.98;;;28.00;75.90;;;;;;5081998;28;20021;-54
2022/03/19 00:39:48;;;;;;;17.08;11.00;;;28.00;75.70;;;;;;5085383;28;20033;-55
2022/03/19 00:42:14;;;;;;;18.90;11.02;;;27.90;75.70;;;;;;5085005;28;20028;-52
2022/03/19 00:44:43;;;;;;;23.38;11.23;;;27.90;75.70;;;;;;5084688;28;20033;-54
2022/03/19 00:47:10;;;;;;;18.38;11.45;;;27.90;75.70;;;;;;5077386;28;20066;-54
2022/03/19 00:49:37;;;;;;;17.70;11.38;;;27.90;75.60;;;;;;5075077;28;20044;-55
2022/03/19 00:52:04;;;;;;;16.92;11.13;;;27.80;75.50;;;;;;5084914;28;20021;-55
2022/03/19 00:54:31;;;;;;;18.92;11.18;;;27.80;75.60;;;;;;5084488;28;20054;-55
2022/03/19 00:56:57;;;;;;;14.23;10.80;;;27.80;75.40;;;;;;5084418;28;20028;-57
2022/03/19 00:59:24;;;;;;;21.77;11.35;;;27.80;75.80;;;;;;5083886;28;20026;-57
2022/03/19 01:01:51;;;;;;;19.17;11.23;;;27.80;75.10;;;;;;5084587;28;20029;-55
2022/03/19 01:04:17;;;;;;;19.33;11.07;;;27.80;75.10;;;;;;5084007;28;20100;-55
2022/03/19 01:06:45;;;;;;;18.38;11.70;;;27.80;75.10;;;;;;5084609;28;20235;-56
2022/03/19 01:09:11;;;;;;;15.57;11.20;;;27.70;75.20;;;;;;5084208;28;20028;-56
2022/03/19 01:11:38;;;;;;;17.98;11.45;;;27.70;74.90;;;;;;5083088;28;20029;-60
2022/03/19 01:14:05;;;;;;;16.60;11.55;;;27.70;74.70;;;;;;5084009;28;20020;-52
2022/03/19 01:16:31;;;;;;;16.98;11.90;;;27.70;75.00;;;;;;5064206;28;20359;-49
2022/03/19 01:18:58;;;;;;;19.10;12.07;;;27.70;75.30;;;;;;5063550;28;20316;-49
2022/03/19 01:21:25;;;;;;;18.02;12.25;;;27.70;75.10;;;;;;5064165;28;20040;-49
2022/03/19 01:23:51;;;;;;;19.98;12.32;;;27.70;75.00;;;;;;5066970;28;20036;-50
2022/03/19 01:26:18;;;;;;;17.27;11.82;;;27.60;74.80;;;;;;5070780;28;20051;-48
2022/03/19 01:28:45;;;;;;;21.02;12.30;;;27.60;74.80;;;;;;5083418;28;20035;-55
2022/03/19 01:31:11;;;;;;;20.42;11.95;;;27.70;74.90;;;;;;5084178;28;20343;-50
2022/03/19 01:33:38;;;;;;;15.63;11.55;;;27.60;74.80;;;;;;5083415;28;20283;-51
2022/03/19 01:36:05;;;;;;;15.80;11.88;;;27.60;74.50;;;;;;5064520;28;20029;-50
2022/03/19 01:38:32;;;;;;;16.65;11.50;;;27.60;74.70;;;;;;5070768;28;20020;-50
2022/03/19 01:41:00;;;;;;;14.18;11.82;;;27.60;74.40;;;;;;5068266;28;20036;-49
2022/03/19 01:43:26;;;;;;;29.27;14.02;;;27.60;74.40;;;;;;5066364;28;20027;-50
2022/03/19 01:45:53;;;;;;;38.00;13.68;;;27.60;74.60;;;;;;5081103;28;20382;-49
2022/03/19 01:48:21;;;;;;;36.17;13.80;;;27.50;74.60;;;;;;5079634;28;20351;-48
2022/03/19 01:50:48;;;;;;;34.13;14.65;;;27.60;74.60;;;;;;5064742;28;20037;-50
2022/03/19 01:53:14;;;;;;;32.88;14.10;;;27.60;74.60;;;;;;5063502;28;20024;-49
2022/03/19 01:55:41;;;;;;;25.40;13.38;;;27.60;74.60;;;;;;5063923;28;20032;-49
2022/03/19 01:58:08;;;;;;;44.50;14.43;;;27.60;74.70;;;;;;5080327;28;20024;-46
2022/03/19 02:00:35;;;;;;;34.00;12.88;;;27.60;74.60;;;;;;5079226;28;20036;-47
2022/03/19 02:03:03;;;;;;;24.83;12.77;;;27.60;74.80;;;;;;5082916;28;20025;-47
2022/03/19 02:05:30;;;;;;;24.52;12.52;;;27.60;74.60;;;;;;5083396;28;20048;-45
2022/03/19 02:07:56;;;;;;;24.33;12.15;;;27.60;74.40;;;;;;5083594;28;20021;-48
2022/03/19 02:10:24;;;;;;;23.42;12.25;;;27.60;74.60;;;;;;5083497;28;20320;-56
2022/03/19 02:12:55;;;;;;;34.58;13.48;;;27.60;74.60;;;;;;5080773;28;20047;-52
2022/03/19 02:15:22;;;;;;;21.67;12.60;;;27.60;74.50;;;;;;5079282;28;20044;-52
2022/03/19 02:17:48;;;;;;;26.58;12.20;;;27.60;74.50;;;;;;5081197;28;20028;-44
2022/03/19 02:20:15;;;;;;;18.83;12.25;;;27.50;74.50;;;;;;5080969;28;20044;-46
2022/03/19 02:25:34;;;;;;;21.67;11.95;;;27.50;74.30;;;;;;5076409;28;20047;-48
2022/03/19 02:25:35;;;;;;;18.15;11.95;;;27.50;74.30;;;;;;5073918;28;20069;-51
2022/03/19 02:28:02;;;;;;;17.67;12.32;;;27.50;74.30;;;;;;5081123;28;20025;-48
2022/03/19 02:30:30;;;;;;;18.02;12.25;;;27.50;74.60;;;;;;5066737;28;20103;-43
2022/03/19 02:32:58;;;;;;;21.67;11.98;;;27.50;74.40;;;;;;5066774;28;20090;-51
2022/03/19 02:35:25;;;;;;;18.42;12.15;;;27.40;74.40;;;;;;5066760;28;20281;-47
2022/03/19 02:37:51;;;;;;;22.92;12.68;;;27.50;74.40;;;;;;5066643;28;20381;-46
2022/03/19 02:40:20;;;;;;;17.08;11.88;;;27.50;74.70;;;;;;5066894;28;20293;-47
2022/03/19 02:42:51;;;;;;;21.70;12.50;;;27.40;74.80;;;;;;5070460;28;20217;-43
2022/03/19 02:45:19;;;;;;;22.33;12.70;;;27.40;75.30;;;;;;5075592;28;20043;-44
2022/03/19 02:47:58;;;;;;;29.05;13.35;;;27.40;75.50;;;;;;5066753;28;20020;-46
2022/03/19 02:50:28;;;;;;;24.17;12.60;;;27.40;75.60;;;;;;5065700;28;20056;-46
2022/03/19 02:52:56;;;;;;;20.30;12.50;;;27.40;75.90;;;;;;5066779;28;20077;-41
2022/03/19 02:55:23;;;;;;;15.38;12.40;;;27.40;75.90;;;;;;5067294;28;20071;-44
2022/03/19 02:57:50;;;;;;;18.55;12.52;;;27.30;75.90;;;;;;5067718;28;20017;-45
2022/03/19 03:00:16;;;;;;;18.88;12.35;;;27.30;75.90;;;;;;5068321;28;20075;-46
2022/03/19 03:02:43;;;;;;;24.67;13.45;;;27.30;76.60;;;;;;5077299;28;20059;-43
2022/03/19 03:05:12;;;;;;;17.63;13.23;;;27.30;76.70;;;;;;5077662;28;20025;-47
2022/03/19 03:07:39;;;;;;;20.60;12.18;;;27.30;77.10;;;;;;5083004;28;20039;-45
2022/03/19 03:10:07;;;;;;;18.50;12.60;;;27.30;76.80;;;;;;5075766;28;20216;-45
2022/03/19 03:12:35;;;;;;;16.23;12.48;;;27.30;76.50;;;;;;5066552;28;20040;-45
2022/03/19 03:15:02;;;;;;;19.23;12.48;;;27.20;76.40;;;;;;5077221;28;20084;-47
2022/03/19 03:17:29;;;;;;;19.35;12.27;;;27.20;76.50;;;;;;5064308;28;20037;-48
2022/03/19 03:19:56;;;;;;;20.85;12.90;;;27.20;76.20;;;;;;5077167;28;20023;-47
2022/03/19 03:22:22;;;;;;;17.45;12.50;;;27.20;76.50;;;;;;5066322;28;20028;-44
2022/03/19 03:24:49;;;;;;;17.27;12.63;;;27.20;76.80;;;;;;5065995;28;20304;-44
2022/03/19 03:27:15;;;;;;;16.83;12.15;;;27.20;76.80;;;;;;5065764;28;20309;-45
2022/03/19 03:29:42;;;;;;;17.38;12.63;;;27.20;76.90;;;;;;5065836;28;20055;-45
2022/03/19 03:32:10;;;;;;;20.42;12.25;;;27.10;77.10;;;;;;5065793;28;20017;-45
2022/03/19 03:34:37;;;;;;;16.02;11.80;;;27.10;77.10;;;;;;5065261;28;20049;-49
2022/03/19 03:37:04;;;;;;;18.00;12.20;;;27.10;77.20;;;;;;5066253;28;20021;-45
2022/03/19 03:39:31;;;;;;;17.33;12.02;;;27.10;77.00;;;;;;5065826;28;20021;-46
2022/03/19 03:41:58;;;;;;;14.18;12.00;;;27.10;76.60;;;;;;5065741;28;20312;-47
2022/03/19 03:44:24;;;;;;;17.73;12.07;;;27.10;76.50;;;;;;5065493;28;20088;-45
2022/03/19 03:46:51;;;;;;;15.43;11.75;;;27.10;76.70;;;;;;5065722;28;20359;-43
2022/03/19 03:49:18;;;;;;;17.13;12.50;;;27.10;76.90;;;;;;5070400;28;20043;-47
2022/03/19 03:51:45;;;;;;;16.63;11.88;;;27.10;76.60;;;;;;5070409;28;20292;-44
2022/03/19 03:54:11;;;;;;;13.75;11.23;;;27.10;76.90;;;;;;5065645;28;20359;-45
2022/03/19 03:56:38;;;;;;;17.92;11.35;;;27.00;76.70;;;;;;5065533;28;20044;-44
2022/03/19 03:59:05;;;;;;;17.02;11.57;;;27.00;76.60;;;;;;5065182;28;20031;-45
2022/03/19 04:01:31;;;;;;;15.15;11.90;;;27.00;76.40;;;;;;5064019;28;20083;-43
2022/03/19 04:03:58;;;;;;;17.48;11.30;;;27.00;76.40;;;;;;5065276;28;20312;-46
2022/03/19 04:06:24;;;;;;;16.67;11.00;;;27.00;76.10;;;;;;5065123;28;20217;-44
2022/03/19 04:08:51;;;;;;;14.77;11.35;;;27.00;76.20;;;;;;5064862;28;20035;-47
2022/03/19 04:11:17;;;;;;;17.83;11.07;;;27.00;76.10;;;;;;5065007;28;20021;-46
2022/03/19 04:13:44;;;;;;;18.50;10.90;;;27.00;75.90;;;;;;5064845;28;20036;-45
2022/03/19 04:16:10;;;;;;;15.45;10.70;;;27.00;75.60;;;;;;5064899;28;20025;-46
2022/03/19 04:18:37;;;;;;;16.17;11.10;;;26.90;75.50;;;;;;5064846;28;20025;-50
2022/03/19 04:21:04;;;;;;;12.48;10.70;;;27.00;75.50;;;;;;5064905;28;20028;-46
2022/03/19 04:23:30;;;;;;;13.02;10.35;;;27.00;75.60;;;;;;5065690;28;20021;-43
2022/03/19 04:25:57;;;;;;;14.35;10.35;;;27.00;75.20;;;;;;5073552;28;20029;-45
2022/03/19 04:28:23;;;;;;;14.68;10.45;;;27.00;75.10;;;;;;5064492;28;20020;-42
2022/03/19 04:30:50;;;;;;;12.95;10.30;;;27.00;74.80;;;;;;5062485;28;20028;-45
2022/03/19 04:33:21;;;;;;;13.60;10.43;;;27.00;74.60;;;;;;5065071;28;20052;-51
2022/03/19 04:38:32;;;;;;;11.65;10.10;;;27.00;75.40;;;;;;5064581;28;20038;-47
2022/03/19 04:41:00;;;;;;;13.85;10.15;;;27.00;74.70;;;;;;5064543;28;20056;-45
2022/03/19 04:43:26;;;;;;;16.05;10.38;;;27.00;75.00;;;;;;5064503;28;20328;-47
2022/03/19 04:45:53;;;;;;;14.23;10.00;;;27.00;74.90;;;;;;5064119;28;20041;-45
2022/03/19 04:48:20;;;;;;;16.52;11.07;;;27.00;74.90;;;;;;5063764;28;20091;-48
2022/03/19 04:50:48;;;;;;;12.95;10.32;;;27.00;74.70;;;;;;5064358;28;20044;-51
2022/03/19 04:53:15;;;;;;;11.68;10.35;;;26.90;74.70;;;;;;5064343;28;20204;-46
2022/03/19 04:55:42;;;;;;;13.73;10.55;;;26.90;74.60;;;;;;5064169;28;20032;-46
2022/03/19 04:58:09;;;;;;;12.63;10.50;;;26.90;74.60;;;;;;5064682;28;20083;-48
2022/03/19 05:00:37;;;;;;;13.75;10.15;;;26.90;74.70;;;;;;5065359;28;20033;-46
2022/03/19 05:03:06;;;;;;;12.25;10.70;;;27.00;74.70;;;;;;5064940;28;20025;-48
2022/03/19 05:05:32;;;;;;;13.27;10.55;;;26.90;74.80;;;;;;5064327;28;20028;-44
2022/03/19 05:07:59;;;;;;;15.10;11.02;;;26.90;74.40;;;;;;5064253;28;20028;-49
2022/03/19 05:13:11;;;;;;;13.48;10.23;;;26.90;74.60;;;;;;5064148;28;20028;-43
2022/03/19 05:15:38;;;;;;;13.98;10.40;;;26.90;74.60;;;;;;5063791;28;20089;-49
2022/03/19 05:18:05;;;;;;;15.07;10.65;;;26.90;74.60;;;;;;5064187;28;20036;-51
2022/03/19 05:20:31;;;;;;;12.18;10.15;;;26.90;74.50;;;;;;5063950;28;20277;-47
2022/03/19 05:22:58;;;;;;;13.32;10.05;;;26.90;74.60;;;;;;5064081;28;20032;-55
2022/03/19 05:25:25;;;;;;;12.02;10.00;;;26.90;74.50;;;;;;5063989;28;20112;-44
2022/03/19 05:27:52;;;;;;;11.20;10.05;;;26.90;74.40;;;;;;5063881;28;20037;-44
2022/03/19 05:30:18;;;;;;;12.77;9.95;;;26.90;74.20;;;;;;5063800;28;20089;-43
2022/03/19 05:32:45;;;;;;;12.25;9.52;;;26.90;74.30;;;;;;5070116;28;20029;-42
2022/03/19 05:35:12;;;;;;;12.65;10.00;;;26.90;73.80;;;;;;5063980;28;20017;-43
2022/03/19 05:37:40;;;;;;;11.25;9.48;;;26.90;73.90;;;;;;5064211;28;20021;-47
2022/03/19 05:40:09;;;;;;;12.25;9.68;;;26.90;73.60;;;;;;5063658;28;20036;-51
2022/03/19 05:42:35;;;;;;;13.45;10.25;;;26.90;73.80;;;;;;5063628;28;20021;-43
2022/03/19 05:45:02;;;;;;;16.45;9.68;;;26.90;73.60;;;;;;5063645;28;20029;-50
2022/03/19 05:47:29;;;;;;;15.73;9.40;;;26.90;73.50;;;;;;5063941;28;20033;-47
2022/03/19 05:49:55;;;;;;;11.35;9.57;;;26.90;73.50;;;;;;5063468;28;20048;-50
2022/03/19 05:52:22;;;;;;;11.30;9.30;;;26.90;73.80;;;;;;5063994;28;20031;-46
2022/03/19 05:54:49;;;;;;;13.32;9.50;;;26.90;73.60;;;;;;5063406;28;20029;-49
2022/03/19 05:57:16;;;;;;;12.55;9.48;;;26.90;73.80;;;;;;5063532;28;20016;-51
2022/03/19 05:59:42;;;;;;;11.10;9.48;;;26.90;73.70;;;;;;5067593;28;20033;-44
2022/03/19 06:02:09;;;;;;;11.45;9.32;;;26.90;73.60;;;;;;5067657;28;20059;-44
2022/03/19 06:04:38;;;;;;;11.15;9.32;;;26.90;73.20;;;;;;5067517;28;20048;-50
2022/03/19 06:07:04;;;;;;;12.75;9.13;;;26.90;73.20;;;;;;5067706;28;20036;-48
2022/03/19 06:09:31;;;;;;;11.40;8.82;;;26.90;73.00;;;;;;5067048;28;20033;-51
2022/03/19 06:11:57;;;;;;;10.98;8.98;;;26.90;72.80;;;;;;5067862;28;20021;-45
2022/03/19 06:14:25;;;;;;;10.38;8.45;;;26.90;73.10;;;;;;5067298;28;20035;-51
2022/03/19 06:16:52;;;;;;;12.68;8.95;;;26.90;73.10;;;;;;5067444;28;20096;-46
2022/03/19 06:19:18;;;;;;;13.27;9.10;;;26.90;73.00;;;;;;5067130;28;20023;-45
2022/03/19 06:21:45;;;;;;;10.30;8.93;;;26.80;72.60;;;;;;5067360;28;20041;-47
2022/03/19 06:24:12;;;;;;;11.05;8.45;;;26.80;72.60;;;;;;5067004;28;20036;-47
2022/03/19 06:26:39;;;;;;;11.90;8.88;;;26.80;73.30;;;;;;5066932;28;20096;-43
2022/03/19 06:29:06;;;;;;;9.65;8.25;;;26.80;72.70;;;;;;5067128;28;20037;-44
2022/03/19 06:31:33;;;;;;;14.65;8.65;;;26.80;72.60;;;;;;5067010;28;20039;-45
2022/03/19 06:33:59;;;;;;;11.27;8.07;;;26.80;72.40;;;;;;5066940;28;20016;-50
2022/03/19 06:39:12;;;;;;;11.60;8.15;;;26.80;72.30;;;;;;5066957;28;20074;-46
2022/03/19 06:41:38;;;;;;;12.05;7.72;;;26.80;72.40;;;;;;5066676;28;20032;-45
2022/03/19 06:44:05;;;;;;;11.77;8.40;;;26.80;72.50;;;;;;5066872;28;20029;-49
2022/03/19 06:46:32;;;;;;;9.05;8.05;;;26.80;72.40;;;;;;5067010;28;20351;-48
2022/03/19 06:48:59;;;;;;;8.63;7.68;;;26.80;72.40;;;;;;5066453;28;20045;-48
2022/03/19 06:51:25;;;;;;;10.70;8.32;;;26.80;72.40;;;;;;5066807;28;20039;-49
2022/03/19 06:53:52;;;;;;;11.18;7.80;;;26.80;72.10;;;;;;5066808;28;20293;-49
2022/03/19 06:56:19;;;;;;;11.05;7.55;;;26.80;72.30;;;;;;5066667;28;20028;-46
2022/03/19 06:58:45;;;;;;;11.13;7.82;;;26.80;72.20;;;;;;5066502;28;20299;-50
2022/03/19 07:01:15;;;;;;;12.20;7.82;;;26.80;72.20;;;;;;5066960;28;20029;-48
2022/03/19 07:03:48;;;;;;;14.23;7.45;;;26.80;72.20;;;;;;5066621;28;20036;-46
2022/03/19 07:06:18;;;;;;;10.90;7.55;;;26.70;72.60;;;;;;5066494;28;20331;-46
2022/03/19 07:08:45;;;;;;;15.48;8.38;;;26.80;72.20;;;;;;5066183;28;20071;-45
2022/03/19 07:11:12;;;;;;;11.50;7.93;;;26.80;72.10;;;;;;5065556;28;20037;-44
2022/03/19 07:13:38;;;;;;;9.75;7.97;;;26.70;72.20;;;;;;5066121;28;20220;-46
2022/03/19 07:16:06;;;;;;;12.18;7.80;;;26.70;72.10;;;;;;5066219;28;20088;-48
2022/03/19 07:18:33;;;;;;;10.23;7.78;;;26.70;72.40;;;;;;5066117;28;20047;-55
2022/03/19 07:21:00;;;;;;;10.43;7.40;;;26.70;72.40;;;;;;5065940;28;20100;-51
2022/03/19 07:23:27;;;;;;;12.60;7.45;;;26.70;72.40;;;;;;5066386;28;20200;-51
2022/03/19 07:25:54;;;;;;;12.38;8.00;;;26.70;72.70;;;;;;5066009;28;20029;-52
2022/03/19 07:28:21;;;;;;;10.15;7.65;;;26.70;72.50;;;;;;5065952;28;20027;-47
2022/03/19 07:30:48;;;;;;;10.55;8.05;;;26.70;72.70;;;;;;5065925;28;20105;-44
2022/03/19 07:33:15;;;;;;;12.30;7.88;;;26.70;72.50;;;;;;5065852;28;20052;-43
2022/03/19 07:35:42;;;;;;;9.70;7.68;;;26.70;72.20;;;;;;5065633;28;20029;-48
2022/03/19 07:38:10;;;;;;;13.38;8.00;;;26.70;72.40;;;;;;5065718;28;20047;-47
2022/03/19 07:43:25;;;;;;;10.20;7.55;;;26.70;72.50;;;;;;5065757;28;20105;-46
2022/03/19 07:45:52;;;;;;;10.30;7.70;;;26.70;72.20;;;;;;5065644;28;20032;-43
2022/03/19 07:48:20;;;;;;;10.90;7.35;;;26.70;72.10;;;;;;5065394;28;20025;-44
2022/03/19 07:50:47;;;;;;;12.00;7.50;;;26.70;72.30;;;;;;5025739;28;20041;-48
2022/03/19 07:53:13;;;;;;;12.48;7.95;;;26.70;72.20;;;;;;5025677;28;20033;-43
2022/03/19 07:55:40;;;;;;;13.48;7.78;;;26.70;72.10;;;;;;5025844;28;20174;-44
2022/03/19 07:58:07;;;;;;;12.05;7.65;;;26.70;72.60;;;;;;5025554;28;20258;-49
2022/03/19 08:00:35;;;;;;;9.63;8.18;;;26.60;72.50;;;;;;5025730;28;20034;-49
2022/03/19 08:03:01;;;;;;;10.45;8.05;;;26.60;73.20;;;;;;5025726;28;20065;-46
2022/03/19 08:05:28;;;;;;;12.45;8.25;;;26.60;73.10;;;;;;5025667;28;20033;-44
2022/03/19 08:07:54;;;;;;;10.10;8.07;;;26.60;73.00;;;;;;5025444;28;20030;-45
2022/03/19 08:10:21;;;;;;;12.90;8.10;;;26.60;73.10;;;;;;5025125;28;20048;-53
2022/03/19 08:12:49;;;;;;;11.00;8.30;;;26.60;73.60;;;;;;5025977;28;20037;-43
2022/03/19 08:15:16;;;;;;;12.15;7.63;;;26.60;73.60;;;;;;5025214;28;20033;-43
2022/03/19 08:17:49;;;;;;;11.20;8.30;;;26.60;73.30;;;;;;5025791;28;20037;-51
2022/03/19 08:20:16;;;;;;;11.40;8.07;;;26.60;73.20;;;;;;5025184;28;20482;-46
2022/03/19 08:22:42;;;;;;;14.18;7.72;;;26.60;73.80;;;;;;5025448;28;20045;-45
2022/03/19 08:25:09;;;;;;;9.95;7.30;;;26.60;73.50;;;;;;5025089;28;20025;-46
2022/03/19 08:27:36;;;;;;;13.30;8.15;;;26.60;73.30;;;;;;5025076;28;20037;-45
2022/03/19 08:30:03;;;;;;;14.18;7.75;;;26.60;73.20;;;;;;5025219;28;20093;-47
2022/03/19 08:32:31;;;;;;;11.23;8.35;;;26.50;72.80;;;;;;5025302;28;20034;-49
2022/03/19 08:34:58;;;;;;;10.10;7.55;;;26.50;72.90;;;;;;5024927;28;20042;-46
2022/03/19 08:37:26;;;;;;;11.60;8.40;;;26.50;72.90;;;;;;5025272;28;20029;-50
2022/03/19 08:42:39;;;;;;;10.25;7.55;;;26.50;73.20;;;;;;5025350;28;20045;-47
2022/03/19 08:45:07;;;;;;;11.43;7.90;;;26.50;73.00;;;;;;5024899;28;20093;-50
2022/03/19 08:47:34;;;;;;;10.77;7.45;;;26.50;73.10;;;;;;5025469;28;20045;-52
2022/03/19 08:50:00;;;;;;;13.43;7.68;;;26.50;73.30;;;;;;5051705;28;20045;-49
2022/03/19 08:52:27;;;;;;;11.70;8.05;;;26.50;73.20;;;;;;5064684;28;20095;-50
2022/03/19 08:54:54;;;;;;;14.73;8.05;;;26.50;72.90;;;;;;5064584;28;20025;-45
2022/03/19 08:57:21;;;;;;;15.45;7.97;;;26.50;72.70;;;;;;5064148;28;20056;-52
2022/03/19 08:59:47;;;;;;;12.32;7.78;;;26.50;72.90;;;;;;5064219;28;20078;-50
2022/03/19 09:02:14;;;;;;;13.63;7.72;;;26.50;72.80;;;;;;5064450;28;20033;-49
2022/03/19 09:04:40;;;;;;;14.43;8.25;;;26.50;72.80;;;;;;5064261;28;20221;-47
2022/03/19 09:07:07;;;;;;;10.30;7.50;;;26.40;72.80;;;;;;5064572;28;20031;-46
2022/03/19 09:09:35;;;;;;;11.68;7.88;;;26.40;72.70;;;;;;5063732;28;20052;-51
2022/03/19 09:12:01;;;;;;;10.85;7.60;;;26.40;72.80;;;;;;5063940;28;20028;-52
2022/03/19 09:14:28;;;;;;;10.18;7.05;;;26.40;72.70;;;;;;5064031;28;20048;-49
2022/03/19 09:16:55;;;;;;;15.40;8.02;;;26.40;72.60;;;;;;5064100;28;20070;-46
2022/03/19 09:19:23;;;;;;;10.73;8.10;;;26.40;72.80;;;;;;5064061;28;20047;-46
2022/03/19 09:21:49;;;;;;;10.18;7.95;;;26.40;73.50;;;;;;5064478;28;20078;-47
2022/03/19 09:24:16;;;;;;;19.90;8.63;;;26.40;72.80;;;;;;5064166;28;20099;-45
2022/03/19 09:26:43;;;;;;;11.98;8.13;;;26.40;73.10;;;;;;5064192;28;20092;-46
2022/03/19 09:29:09;;;;;;;12.95;8.27;;;26.30;73.20;;;;;;5063749;28;20213;-47
2022/03/19 09:31:36;;;;;;;17.00;8.60;;;26.30;73.10;;;;;;5063825;28;20021;-45
2022/03/19 09:34:03;;;;;;;12.15;7.95;;;26.40;73.20;;;;;;5063217;28;20021;-48
2022/03/19 09:36:29;;;;;;;13.07;7.65;;;26.30;73.20;;;;;;5064036;28;20032;-48
2022/03/19 09:38:56;;;;;;;9.10;8.05;;;26.30;72.70;;;;;;5063540;28;20029;-45
2022/03/19 09:41:23;;;;;;;13.40;8.10;;;26.40;73.10;;;;;;5063546;28;20052;-46
2022/03/19 09:43:50;;;;;;;10.70;8.00;;;26.40;73.10;;;;;;5063772;28;20025;-45
2022/03/19 09:46:17;;;;;;;15.70;8.88;;;26.40;73.10;;;;;;5063702;28;20217;-47
2022/03/19 09:48:44;;;;;;;10.55;8.07;;;26.40;73.20;;;;;;5063388;28;20049;-46
2022/03/19 09:51:11;;;;;;;15.80;8.48;;;26.40;72.90;;;;;;5063817;28;20036;-48
2022/03/19 09:53:41;;;;;;;11.15;7.75;;;26.40;72.70;;;;;;5063543;28;20059;-44
2022/03/19 09:56:09;;;;;;;12.05;8.02;;;26.40;72.60;;;;;;5063704;28;20021;-49
2022/03/19 09:58:36;;;;;;;11.82;8.13;;;26.40;72.50;;;;;;5063497;28;20029;-43
2022/03/19 10:01:06;;;;;;;13.52;8.15;;;26.40;72.50;;;;;;5063583;28;20299;-45
2022/03/19 10:03:42;;;;;;;13.23;7.88;;;26.40;72.20;;;;;;5063687;28;20017;-42
2022/03/19 10:09:01;;;;;;;;;;;26.40;72.10;;;;;;5063819;28;20079;-46
2022/03/19 10:14:54;;;;;;;11.77;8.07;;;26.40;72.30;;;;;;5063354;28;20020;-43
2022/03/19 10:17:30;;;;;;;14.40;7.90;;;26.40;72.50;;;;;;5063824;28;20033;-47
2022/03/19 10:20:06;;;;;;;18.30;8.27;;;26.40;72.50;;;;;;5063445;28;20309;-40
2022/03/19 10:22:34;;;;;;;12.55;8.32;;;26.40;72.60;;;;;;5063923;28;20200;-40
2022/03/19 10:25:09;;;;;;;12.32;7.78;;;26.40;72.50;;;;;;5063272;28;20033;-43
2022/03/19 10:27:42;;;;;;;12.18;7.95;;;26.50;72.70;;;;;;5063736;28;20029;-43
2022/03/19 10:30:19;;;;;;;11.30;8.50;;;26.50;72.40;;;;;;5063250;28;20025;-45
2022/03/19 10:32:52;;;;;;;14.57;8.23;;;26.40;72.60;;;;;;5063605;28;20055;-44
2022/03/19 10:35:28;;;;;;;9.80;7.85;;;26.50;72.50;;;;;;5063249;28;20052;-42
2022/03/19 10:37:55;;;;;;;13.05;7.82;;;26.50;72.60;;;;;;5063118;28;20057;-42
2022/03/19 10:40:22;;;;;;;12.63;7.70;;;26.40;72.40;;;;;;5063207;28;20028;-49
2022/03/19 10:42:52;;;;;;;12.07;8.02;;;26.40;72.60;;;;;;5063031;28;20093;-47
2022/03/19 10:45:22;;;;;;;12.43;7.53;;;26.50;72.50;;;;;;5064397;28;20028;-49
2022/03/19 10:47:49;;;;;;;9.77;7.75;;;26.50;73.00;;;;;;5067116;28;20091;-44
2022/03/19 10:50:21;;;;;;;14.93;8.30;;;26.40;72.80;;;;;;5066337;28;20075;-45
2022/03/19 10:52:49;;;;;;;12.68;7.35;;;26.50;73.00;;;;;;5067120;28;20054;-44
2022/03/19 10:55:17;;;;;;;13.52;7.47;;;26.50;72.80;;;;;;5066610;28;20027;-46
2022/03/19 10:57:46;;;;;;;13.07;7.22;;;26.50;72.70;;;;;;5066811;28;20033;-48
2022/03/19 11:00:14;;;;;;;14.60;7.13;;;26.50;72.80;;;;;;5066711;28;20033;-47
2022/03/19 11:02:48;;;;;;;24.05;8.00;;;26.50;72.70;;;;;;5066835;28;20025;-46
2022/03/19 11:05:19;;;;;;;13.68;7.68;;;26.50;73.00;;;;;;5066540;28;20036;-46
2022/03/19 11:07:47;;;;;;;22.92;7.82;;;26.50;73.50;;;;;;5066715;28;20301;-45
2022/03/19 11:10:14;;;;;;;19.77;7.75;;;26.50;73.70;;;;;;5066201;28;20201;-50
2022/03/19 11:12:50;;;;;;;18.13;8.70;;;26.50;73.70;;;;;;5066445;28;20331;-51
2022/03/19 11:15:19;;;;;;;21.30;10.98;;;26.50;73.30;;;;;;5083181;28;20024;-44
2022/03/19 11:17:50;;;;;;;23.58;12.30;;;26.50;73.30;;;;;;5072940;28;20060;-48
2022/03/19 11:20:17;;;;;;;21.92;12.00;;;26.50;73.30;;;;;;5081088;28;20063;-50
2022/03/19 11:22:50;;;;;;;20.38;10.95;;;26.60;73.50;;;;;;5084368;28;20071;-47
2022/03/19 11:25:26;;;;;;;23.30;11.60;;;26.60;73.50;;;;;;5084356;28;20116;-49
2022/03/19 11:27:58;;;;;;;16.10;10.18;;;26.60;73.40;;;;;;5076191;28;20041;-54
2022/03/19 11:30:26;;;;;;;;;;;26.50;73.00;;;;;;5064408;28;20017;-49
2022/03/19 11:33:05;;;;;;;17.48;9.85;;;26.60;73.20;;;;;;5077209;28;19904;-50
2022/03/19 11:35:42;;;;;;;21.58;10.20;;;26.60;73.10;;;;;;5082663;28;20040;-55
2022/03/19 11:38:13;;;;;;;17.30;10.18;;;26.60;73.00;;;;;;5082702;28;20027;-50
2022/03/19 11:40:54;;;;;;;15.98;10.30;;;26.60;73.00;;;;;;5083880;28;20209;-56
2022/03/19 11:43:33;;;;;;;16.52;10.75;;;26.60;73.10;;;;;;5084421;28;20074;-50
2022/03/19 11:46:03;;;;;;;15.13;10.30;;;26.60;73.30;;;;;;5085984;28;20040;-45
2022/03/19 11:48:36;;;;;;;17.27;10.02;;;26.60;73.30;;;;;;5085366;28;20032;-49
2022/03/19 11:51:28;;;;;;;18.52;9.85;;;26.60;73.60;;;;;;5085682;28;20300;-44
2022/03/19 11:54:03;;;;;;;15.88;9.50;;;26.70;73.60;;;;;;5085465;28;20343;-42
2022/03/19 11:56:36;;;;;;;14.27;9.27;;;26.70;73.90;;;;;;5085189;28;20043;-42
2022/03/19 11:59:07;;;;;;;14.27;9.60;;;26.70;74.40;;;;;;5083623;28;20036;-43
2022/03/19 12:01:55;;;;;;;14.98;9.98;;;26.60;74.50;;;;;;5065577;28;20036;-44
2022/03/19 12:04:24;;;;;;;12.88;9.50;;;26.70;74.50;;;;;;5065530;28;20056;-51
2022/03/19 12:09:48;;;;;;;16.50;9.05;;;26.70;74.60;;;;;;5065156;28;20348;-46
2022/03/19 12:12:18;;;;;;;17.17;9.60;;;26.70;74.70;;;;;;5065221;28;20029;-48
2022/03/19 12:14:45;;;;;;;17.83;9.93;;;26.70;75.10;;;;;;5069444;28;20319;-43
2022/03/19 12:17:17;;;;;;;17.90;9.55;;;26.70;75.10;;;;;;5085125;28;20044;-46
2022/03/19 12:20:04;;;;;;;21.73;10.75;;;26.70;75.30;;;;;;5073045;28;20035;-48
2022/03/19 12:22:39;;;;;;;30.52;11.82;;;26.70;75.30;;;;;;5065303;28;20079;-48
2022/03/19 12:25:18;;;;;;;41.92;12.27;;;26.70;75.70;;;;;;5064809;28;20396;-47
2022/03/19 12:27:55;;;;;;;27.60;10.98;;;26.70;75.70;;;;;;5065591;28;20217;-50
2022/03/19 12:30:22;;;;;;;20.63;11.25;;;26.80;76.30;;;;;;5064796;28;20224;-43
2022/03/19 12:32:55;;;;;;;26.98;11.25;;;26.80;76.30;;;;;;5064022;28;20048;-47
2022/03/19 12:35:22;;;;;;;;;;;26.70;76.40;;;;;;5065173;28;20091;-46
2022/03/19 12:37:57;;;;;;;21.73;10.93;;;26.70;76.60;;;;;;5065260;28;20160;-53
2022/03/19 12:40:27;;;;;;;23.15;10.48;;;26.70;76.80;;;;;;5064656;28;20084;-47
2022/03/19 12:42:57;;;;;;;19.98;10.68;;;26.70;76.70;;;;;;5064612;28;20311;-45
2022/03/19 12:45:42;;;;;;;17.45;10.13;;;26.70;76.80;;;;;;5064505;28;20052;-48
2022/03/19 12:48:19;;;;;;;16.63;10.82;;;26.70;76.70;;;;;;5064566;28;20041;-46
2022/03/19 12:50:54;;;;;;;16.38;10.50;;;26.80;76.80;;;;;;5064236;28;20045;-53
2022/03/19 12:53:35;;;;;;;15.30;10.20;;;26.70;76.60;;;;;;5064347;28;20336;-52
2022/03/19 12:56:21;;;;;;;15.98;10.15;;;26.80;77.10;;;;;;5064364;28;20068;-46
2022/03/19 12:58:53;;;;;;;22.98;10.35;;;26.80;77.00;;;;;;5064129;28;20058;-50
2022/03/19 13:01:22;;;;;;;16.13;10.48;;;26.70;77.40;;;;;;5064312;28;20067;-51